createdAt,value
2022-12-11T00:02:09.226Z,14.02
2022-12-11T00:04:35.889Z,13.86
2022-12-11T00:07:02.523Z,13.78
2022-12-11T00:09:29.152Z,13.25
2022-12-11T00:11:55.969Z,13.26
2022-12-11T00:14:22.598Z,13.13
2022-12-11T00:16:49.305Z,12.65
2022-12-11T00:19:16.226Z,12.82
2022-12-11T00:21:42.876Z,12.37
2022-12-11T00:24:09.580Z,12.07
2022-12-11T00:26:36.201Z,13.03
2022-12-11T00:29:02.889Z,14.11
2022-12-11T00:31:29.592Z,14.21
2022-12-11T00:33:56.263Z,14.13
2022-12-11T00:36:25.093Z,14.41
2022-12-11T00:38:51.828Z,14.31
2022-12-11T00:41:18.482Z,14.24
2022-12-11T00:43:45.167Z,14.33
2022-12-11T00:46:11.878Z,14.47
2022-12-11T00:48:38.546Z,14.16
2022-12-11T00:51:05.411Z,14.02
2022-12-11T00:53:32.056Z,13.61
2022-12-11T00:55:58.700Z,13.21
2022-12-11T00:58:25.359Z,14.06
2022-12-11T01:00:52.010Z,13.33
2022-12-11T01:03:18.622Z,14.12
2022-12-11T01:05:52.590Z,14.02
2022-12-11T01:08:19.270Z,14.32
2022-12-11T01:10:45.944Z,14.61
2022-12-11T01:13:12.610Z,14.66
2022-12-11T01:15:42.024Z,14.55
2022-12-11T01:18:09.755Z,14.97
2022-12-11T01:20:37.890Z,15.06
2022-12-11T01:23:04.786Z,15.89
2022-12-11T01:25:31.423Z,15.78
2022-12-11T01:27:58.059Z,16.12
2022-12-11T01:30:25.273Z,16.03
2022-12-11T01:32:52.116Z,15.42
2022-12-11T01:35:18.965Z,15.84
2022-12-11T01:37:45.601Z,15.89
2022-12-11T01:40:14.042Z,16.49
2022-12-11T01:42:40.683Z,17.14
2022-12-11T01:45:24.702Z,17.83
2022-12-11T01:48:18.109Z,17.72
2022-12-11T01:50:50.575Z,17.84
2022-12-11T01:53:23.469Z,17.33
2022-12-11T01:55:50.648Z,17.72
2022-12-11T01:58:17.294Z,17.62
2022-12-11T02:00:43.963Z,17.64
2022-12-11T02:03:10.606Z,18.16
2022-12-11T02:05:37.249Z,16.91
2022-12-11T02:08:03.976Z,17.01
2022-12-11T02:10:57.188Z,17.49
2022-12-11T02:13:30.253Z,17.61
2022-12-11T02:16:06.027Z,16.60
2022-12-11T02:18:39.483Z,16.96
2022-12-11T02:21:08.891Z,16.96
2022-12-11T02:24:12.779Z,17.43
2022-12-11T02:27:14.773Z,17.43
2022-12-11T02:29:49.703Z,17.22
2022-12-11T02:32:25.242Z,17.97
2022-12-11T02:34:57.613Z,17.03
2022-12-11T02:37:25.202Z,17.82
2022-12-11T02:39:52.542Z,17.50
2022-12-11T02:42:19.191Z,17.45
2022-12-11T02:44:45.836Z,18.42
2022-12-11T02:47:12.942Z,18.04
2022-12-11T02:49:40.540Z,17.81
2022-12-11T02:52:07.176Z,18.19
2022-12-11T02:54:36.146Z,17.22
2022-12-11T02:57:08.873Z,16.95
2022-12-11T02:59:42.800Z,16.82
2022-12-11T03:02:09.489Z,17.13
2022-12-11T03:04:36.130Z,17.31
2022-12-11T03:07:07.252Z,16.75
2022-12-11T03:09:33.912Z,16.93
2022-12-11T03:12:00.555Z,16.99
2022-12-11T03:14:27.182Z,17.29
2022-12-11T03:17:04.058Z,16.87
2022-12-11T03:19:35.638Z,17.47
2022-12-11T03:22:24.663Z,16.57
2022-12-11T03:24:51.882Z,16.93
2022-12-11T03:27:27.546Z,16.26
2022-12-11T03:29:59.005Z,16.70
2022-12-11T03:32:28.287Z,16.79
2022-12-11T03:35:18.025Z,16.81
2022-12-11T03:37:44.648Z,16.80
2022-12-11T03:40:14.397Z,16.94
2022-12-11T03:42:41.036Z,16.47
2022-12-11T03:45:08.058Z,16.02
2022-12-11T03:47:34.885Z,15.62
2022-12-11T03:50:01.573Z,15.44
2022-12-11T03:52:28.203Z,14.87
2022-12-11T03:54:55.319Z,15.27
2022-12-11T03:57:22.782Z,14.94
2022-12-11T03:59:49.561Z,15.05
2022-12-11T04:02:16.212Z,15.19
2022-12-11T04:04:43.009Z,14.57
2022-12-11T04:07:09.672Z,14.85
2022-12-11T04:09:36.324Z,14.98
2022-12-11T04:12:03.003Z,14.87
2022-12-11T04:14:29.667Z,15.56
2022-12-11T04:16:56.610Z,16.46
2022-12-11T04:19:23.297Z,16.42
2022-12-11T04:21:49.918Z,16.88
2022-12-11T04:24:16.556Z,17.22
2022-12-11T04:26:46.470Z,17.27
2022-12-11T04:29:13.818Z,16.64
2022-12-11T04:31:40.477Z,16.57
2022-12-11T04:34:07.131Z,16.29
2022-12-11T04:36:33.783Z,16.13
2022-12-11T04:39:00.436Z,16.14
2022-12-11T04:41:27.083Z,15.86
2022-12-11T04:43:53.733Z,15.38
2022-12-11T04:46:21.373Z,14.79
2022-12-11T04:48:52.370Z,13.94
2022-12-11T04:51:22.223Z,14.30
2022-12-11T04:53:48.871Z,14.20
2022-12-11T04:56:15.686Z,14.52
2022-12-11T04:58:43.202Z,14.81
2022-12-11T05:01:10.899Z,14.28
2022-12-11T05:03:37.654Z,14.83
2022-12-11T05:06:04.534Z,14.53
2022-12-11T05:08:31.153Z,14.78
2022-12-11T05:11:02.375Z,14.24
2022-12-11T05:13:29.142Z,14.71
2022-12-11T05:15:55.999Z,14.22
2022-12-11T05:18:22.675Z,13.98
2022-12-11T05:21:02.233Z,13.31
2022-12-11T05:23:29.025Z,13.90
2022-12-11T05:25:56.573Z,12.92
2022-12-11T05:28:23.457Z,12.70
2022-12-11T05:31:01.403Z,12.68
2022-12-11T05:33:28.199Z,12.87
2022-12-11T05:35:54.825Z,13.11
2022-12-11T05:38:21.434Z,12.81
2022-12-11T05:41:01.161Z,13.43
2022-12-11T05:43:28.592Z,13.99
2022-12-11T05:45:55.237Z,14.82
2022-12-11T05:48:21.905Z,14.63
2022-12-11T05:51:00.272Z,14.75
2022-12-11T05:53:26.977Z,14.62
2022-12-11T05:55:53.621Z,14.53
2022-12-11T05:58:20.536Z,14.55
2022-12-11T06:00:47.677Z,14.13
2022-12-11T06:03:14.439Z,14.60
2022-12-11T06:05:41.634Z,15.01
2022-12-11T06:08:08.382Z,14.54
2022-12-11T06:10:35.034Z,15.54
2022-12-11T06:13:01.670Z,15.43
2022-12-11T06:15:29.007Z,15.04
2022-12-11T06:17:55.639Z,14.88
2022-12-11T06:20:22.252Z,15.73
2022-12-11T06:22:48.897Z,15.32
2022-12-11T06:25:15.567Z,15.59
2022-12-11T06:27:42.191Z,14.66
2022-12-11T06:30:09.326Z,15.78
2022-12-11T06:32:35.958Z,15.56
2022-12-11T06:35:02.598Z,15.25
2022-12-11T06:37:29.226Z,14.39
2022-12-11T06:39:55.856Z,15.13
2022-12-11T06:42:22.509Z,15.64
2022-12-11T06:44:49.128Z,16.73
2022-12-11T06:47:15.829Z,16.20
2022-12-11T06:49:42.482Z,16.28
2022-12-11T06:52:12.459Z,17.06
2022-12-11T06:54:41.686Z,17.32
2022-12-11T06:57:09.615Z,17.51
2022-12-11T06:59:36.389Z,17.25
2022-12-11T07:02:03.094Z,17.43
2022-12-11T07:04:29.760Z,18.28
2022-12-11T07:06:57.025Z,17.57
2022-12-11T07:09:24.295Z,17.69
2022-12-11T07:11:51.538Z,18.06
2022-12-11T07:14:18.156Z,17.69
2022-12-11T07:16:44.811Z,18.81
2022-12-11T07:19:11.469Z,19.38
2022-12-11T07:21:38.114Z,19.42
2022-12-11T07:24:05.033Z,19.13
2022-12-11T07:26:31.650Z,19.24
2022-12-11T07:28:58.320Z,19.34
2022-12-11T07:31:25.806Z,19.04
2022-12-11T07:33:59.656Z,19.34
2022-12-11T07:36:26.433Z,19.44
2022-12-11T07:38:53.158Z,19.45
2022-12-11T07:41:19.846Z,19.35
2022-12-11T07:43:46.469Z,19.83
2022-12-11T07:46:15.267Z,18.65
2022-12-11T07:48:42.699Z,19.24
2022-12-11T07:51:16.943Z,19.35
2022-12-11T07:53:44.306Z,18.85
2022-12-11T07:56:11.108Z,20.27
2022-12-11T07:58:37.739Z,19.71
2022-12-11T08:01:25.162Z,19.72
2022-12-11T08:03:52.117Z,19.66
2022-12-11T08:06:18.746Z,19.31
2022-12-11T08:08:45.381Z,19.45
2022-12-11T08:11:12.940Z,19.54
2022-12-11T08:13:39.633Z,19.17
2022-12-11T08:16:07.031Z,18.94
2022-12-11T08:18:34.225Z,18.88
2022-12-11T08:21:05.820Z,18.57
2022-12-11T08:23:32.529Z,18.86
2022-12-11T08:25:59.183Z,19.22
2022-12-11T08:28:27.291Z,19.28
2022-12-11T08:30:54.080Z,20.16
2022-12-11T08:33:20.758Z,20.14
2022-12-11T08:35:47.441Z,19.62
2022-12-11T08:38:14.350Z,19.63
2022-12-11T08:40:41.047Z,18.97
2022-12-11T08:43:07.664Z,18.20
2022-12-11T08:45:34.295Z,16.81
2022-12-11T08:48:00.961Z,15.49
2022-12-11T08:50:27.619Z,14.76
2022-12-11T08:52:54.321Z,15.16
2022-12-11T08:55:20.989Z,16.31
2022-12-11T08:57:47.656Z,16.83
2022-12-11T09:00:14.740Z,17.78
2022-12-11T09:02:41.860Z,17.43
2022-12-11T09:05:08.915Z,17.57
2022-12-11T09:07:36.356Z,17.30
2022-12-11T09:10:06.600Z,17.41
2022-12-11T09:12:34.253Z,16.45
2022-12-11T09:15:00.890Z,15.50
2022-12-11T09:17:27.587Z,15.95
2022-12-11T09:19:54.273Z,15.65
2022-12-11T09:22:20.894Z,15.21
2022-12-11T09:24:47.561Z,15.11
2022-12-11T09:27:14.173Z,15.84
2022-12-11T09:29:40.843Z,15.06
2022-12-11T09:32:07.475Z,15.35
2022-12-11T09:34:34.115Z,15.88
2022-12-11T09:37:00.767Z,14.40
2022-12-11T09:39:27.391Z,14.59
2022-12-11T09:42:08.699Z,14.33
2022-12-11T09:44:41.520Z,14.51
2022-12-11T09:47:23.279Z,14.98
2022-12-11T09:49:51.457Z,14.54
2022-12-11T09:52:27.590Z,15.53
2022-12-11T09:54:58.987Z,15.55
2022-12-11T09:57:34.196Z,16.55
2022-12-11T10:00:20.294Z,16.26
2022-12-11T10:03:18.511Z,15.25
2022-12-11T10:06:05.105Z,14.74
2022-12-11T10:08:56.234Z,14.95
2022-12-11T10:11:44.003Z,15.12
2022-12-11T10:14:17.339Z,14.90
2022-12-11T10:16:49.072Z,15.40
2022-12-11T10:19:26.288Z,15.10
2022-12-11T10:21:52.952Z,15.49
2022-12-11T10:24:57.871Z,15.74
2022-12-11T10:27:19.783Z,15.50
2022-12-11T10:30:00.909Z,16.38
2022-12-11T10:33:03.083Z,16.78
2022-12-11T10:35:31.518Z,15.73
2022-12-11T10:38:16.524Z,16.08
2022-12-11T10:40:45.930Z,16.31
2022-12-11T10:43:12.594Z,16.27
2022-12-11T10:45:39.237Z,15.75
2022-12-11T10:48:11.832Z,15.12
2022-12-11T10:50:38.473Z,15.47
2022-12-11T10:53:05.358Z,15.50
2022-12-11T10:55:39.287Z,14.84
2022-12-11T10:58:05.915Z,15.05
2022-12-11T11:00:36.963Z,15.06
2022-12-11T11:03:36.526Z,15.36
2022-12-11T11:06:16.929Z,15.45
2022-12-11T11:08:45.598Z,15.94
2022-12-11T11:11:26.859Z,16.46
2022-12-11T11:14:09.962Z,15.66
2022-12-11T11:16:37.470Z,15.91
2022-12-11T11:19:04.107Z,16.34
2022-12-11T11:21:30.874Z,16.30
2022-12-11T11:23:57.570Z,16.02
2022-12-11T11:26:30.793Z,16.05
2022-12-11T11:29:23.037Z,16.50
2022-12-11T11:31:49.728Z,16.49
2022-12-11T11:34:19.492Z,15.98
2022-12-11T11:36:46.119Z,16.00
2022-12-11T11:39:31.902Z,15.90
2022-12-11T11:42:13.687Z,15.66
2022-12-11T11:44:43.447Z,16.23
2022-12-11T11:47:48.789Z,15.85
2022-12-11T11:50:18.178Z,15.90
2022-12-11T11:52:56.011Z,16.09
2022-12-11T11:55:31.909Z,15.97
2022-12-11T11:58:23.512Z,16.23
2022-12-11T12:00:50.431Z,16.11
2022-12-11T12:03:19.395Z,15.70
2022-12-11T12:05:49.998Z,16.06
2022-12-11T12:08:25.621Z,15.93
2022-12-11T12:11:01.733Z,16.38
2022-12-11T12:13:55.617Z,16.14
2022-12-11T12:19:48.149Z,16.14
2022-12-11T12:22:40.214Z,16.17
2022-12-11T12:25:31.933Z,16.78
2022-12-11T12:28:35.693Z,16.37
2022-12-11T12:31:14.479Z,16.43
2022-12-11T12:33:48.317Z,16.50
2022-12-11T12:36:36.742Z,16.29
2022-12-11T12:39:43.969Z,17.06
2022-12-11T12:42:36.746Z,17.32
2022-12-11T12:45:12.902Z,16.85
2022-12-11T12:47:39.707Z,17.15
2022-12-11T12:50:12.209Z,17.21
2022-12-11T12:52:39.262Z,17.12
2022-12-11T12:55:26.775Z,17.53
2022-12-11T12:57:55.738Z,17.60
2022-12-11T13:00:39.194Z,17.46
2022-12-11T13:03:20.504Z,17.36
2022-12-11T13:06:01.115Z,17.67
2022-12-11T13:08:31.600Z,17.37
2022-12-11T13:11:06.313Z,17.52
2022-12-11T13:13:35.898Z,17.27
2022-12-11T13:16:17.534Z,17.74
2022-12-11T13:18:45.505Z,16.72
2022-12-11T13:21:36.090Z,17.92
2022-12-11T13:24:21.743Z,17.40
2022-12-11T13:26:49.331Z,17.54
2022-12-11T13:29:32.661Z,17.59
2022-12-11T13:32:01.662Z,17.97
2022-12-11T13:34:32.209Z,18.19
2022-12-11T13:36:59.803Z,18.16
2022-12-11T13:39:28.420Z,18.83
2022-12-11T13:41:57.769Z,17.79
2022-12-11T13:44:28.540Z,17.98
2022-12-11T13:46:58.878Z,18.20
2022-12-11T13:49:38.903Z,17.97
2022-12-11T13:52:06.482Z,18.44
2022-12-11T13:54:36.815Z,18.22
2022-12-11T13:57:07.988Z,18.23
2022-12-11T13:59:38.533Z,18.26
2022-12-11T14:02:14.942Z,17.98
2022-12-11T14:04:43.499Z,18.62
2022-12-11T14:07:10.187Z,18.57
2022-12-11T14:09:39.815Z,18.83
2022-12-11T14:12:06.678Z,18.21
2022-12-11T14:14:40.653Z,18.17
2022-12-11T14:17:12.446Z,18.06
2022-12-11T14:19:39.196Z,19.04
2022-12-11T14:22:05.930Z,18.61
2022-12-11T14:24:32.611Z,18.46
2022-12-11T14:26:59.904Z,18.63
2022-12-11T14:29:33.557Z,18.84
2022-12-11T14:32:05.061Z,18.44
2022-12-11T14:34:36.926Z,18.50
2022-12-11T14:37:06.330Z,19.21
2022-12-11T14:39:41.954Z,18.39
2022-12-11T14:42:18.762Z,18.71
2022-12-11T14:44:49.443Z,18.79
2022-12-11T14:47:21.503Z,18.43
2022-12-11T14:50:08.248Z,18.92
2022-12-11T14:52:50.683Z,19.34
2022-12-11T14:55:22.871Z,19.25
2022-12-11T14:57:50.661Z,19.33
2022-12-11T15:00:31.126Z,19.01
2022-12-11T15:03:18.972Z,19.35
2022-12-11T15:05:56.123Z,19.71
2022-12-11T15:08:27.343Z,19.43
2022-12-11T15:11:13.419Z,20.09
2022-12-11T15:13:57.953Z,19.41
2022-12-11T15:16:25.282Z,19.83
2022-12-11T15:18:53.522Z,20.22
2022-12-11T15:21:20.165Z,20.24
2022-12-11T15:23:51.160Z,19.82
2022-12-11T15:26:17.948Z,19.15
2022-12-11T15:28:44.712Z,19.75
2022-12-11T15:31:30.433Z,19.72
2022-12-11T15:33:57.121Z,20.71
2022-12-11T15:36:26.258Z,19.60
2022-12-11T15:38:52.907Z,19.60
2022-12-11T15:41:19.796Z,19.51
2022-12-11T15:43:46.482Z,20.25
2022-12-11T15:46:13.229Z,20.29
2022-12-11T15:48:39.874Z,20.10
2022-12-11T15:51:06.543Z,20.27
2022-12-11T15:53:33.206Z,19.62
2022-12-11T15:55:59.859Z,20.31
2022-12-11T15:58:26.546Z,20.63
2022-12-11T16:00:53.621Z,20.48
2022-12-11T16:03:21.285Z,20.12
2022-12-11T16:05:49.112Z,20.68
2022-12-11T16:08:18.303Z,21.07
2022-12-11T16:10:45.086Z,20.46
2022-12-11T16:13:11.917Z,20.28
2022-12-11T16:15:39.381Z,20.26
2022-12-11T16:18:07.547Z,20.86
2022-12-11T16:20:35.011Z,20.58
2022-12-11T16:23:01.715Z,20.96
2022-12-11T16:25:28.435Z,20.63
2022-12-11T16:27:58.612Z,21.30
2022-12-11T16:30:26.079Z,21.79
2022-12-11T16:32:52.777Z,21.62
2022-12-11T16:35:19.746Z,21.27
2022-12-11T16:37:49.149Z,21.15
2022-12-11T16:40:15.887Z,21.01
2022-12-11T16:42:42.538Z,21.38
2022-12-11T16:45:12.806Z,21.47
2022-12-11T16:47:39.594Z,21.25
2022-12-11T16:50:06.750Z,21.62
2022-12-11T16:52:33.450Z,21.05
2022-12-11T16:55:00.098Z,21.17
2022-12-11T16:57:26.759Z,21.67
2022-12-11T16:59:53.586Z,21.99
2022-12-11T17:02:20.449Z,21.62
2022-12-11T17:04:53.523Z,21.64
2022-12-11T17:07:20.603Z,22.36
2022-12-11T17:09:48.282Z,21.62
2022-12-11T17:12:15.007Z,21.73
2022-12-11T17:14:41.718Z,21.36
2022-12-11T17:17:08.381Z,21.05
2022-12-11T17:19:35.484Z,20.18
2022-12-11T17:22:02.174Z,21.35
2022-12-11T17:24:29.213Z,21.08
2022-12-11T17:26:55.899Z,20.76
2022-12-11T17:29:22.614Z,21.30
2022-12-11T17:31:49.280Z,21.19
2022-12-11T17:34:15.919Z,20.91
2022-12-11T17:36:42.543Z,20.68
2022-12-11T17:39:09.187Z,20.83
2022-12-11T17:41:35.851Z,19.50
2022-12-11T17:44:02.519Z,19.27
2022-12-11T17:46:29.253Z,18.69
2022-12-11T17:48:56.305Z,18.59
2022-12-11T17:51:23.997Z,19.38
2022-12-11T17:53:51.636Z,19.46
2022-12-11T17:56:19.139Z,19.16
2022-12-11T17:58:45.866Z,18.36
2022-12-11T18:01:12.628Z,17.86
2022-12-11T18:03:42.051Z,17.28
2022-12-11T18:06:10.965Z,16.96
2022-12-11T18:08:37.735Z,17.05
2022-12-11T18:11:11.531Z,16.80
2022-12-11T18:13:38.367Z,17.78
2022-12-11T18:16:07.011Z,17.94
2022-12-11T18:18:36.529Z,18.09
2022-12-11T18:21:03.183Z,17.54
2022-12-11T18:23:29.838Z,16.48
2022-12-11T18:25:56.650Z,17.24
2022-12-11T18:28:23.319Z,17.16
2022-12-11T18:30:50.014Z,16.39
2022-12-11T18:33:16.664Z,15.34
2022-12-11T18:35:43.919Z,15.46
2022-12-11T18:38:10.606Z,16.73
2022-12-11T18:40:37.999Z,17.45
2022-12-11T18:43:04.879Z,19.29
2022-12-11T18:45:31.618Z,20.40
2022-12-11T18:47:58.262Z,20.36
2022-12-11T18:50:25.243Z,20.71
2022-12-11T18:52:55.376Z,18.61
2022-12-11T18:55:22.023Z,18.09
2022-12-11T18:57:48.671Z,17.03
2022-12-11T19:00:15.837Z,15.81
2022-12-11T19:02:42.541Z,14.79
2022-12-11T19:05:09.540Z,14.36
2022-12-11T19:07:36.471Z,14.74
2022-12-11T19:10:03.491Z,14.20
2022-12-11T19:12:30.178Z,13.35
2022-12-11T19:14:56.856Z,13.38
2022-12-11T19:17:23.515Z,12.67
2022-12-11T19:19:50.425Z,12.91
2022-12-11T19:22:17.536Z,14.36
2022-12-11T19:24:44.443Z,15.35
2022-12-11T19:27:13.719Z,15.15
2022-12-11T19:29:40.576Z,16.32
2022-12-11T19:32:07.245Z,17.09
2022-12-11T19:34:34.092Z,15.97
2022-12-11T19:37:00.757Z,15.65
2022-12-11T19:39:27.412Z,15.41
2022-12-11T19:41:54.266Z,14.93
2022-12-11T19:44:20.988Z,14.44
2022-12-11T19:46:47.760Z,14.95
2022-12-11T19:49:14.445Z,15.05
2022-12-11T19:51:41.692Z,14.69
2022-12-11T19:54:09.754Z,14.83
2022-12-11T19:56:36.417Z,17.22
2022-12-11T19:59:04.086Z,17.10
2022-12-11T20:01:31.690Z,15.26
2022-12-11T20:03:59.459Z,15.12
2022-12-11T20:06:27.807Z,15.25
2022-12-11T20:08:54.547Z,15.36
2022-12-11T20:11:21.268Z,16.32
2022-12-11T20:13:48.050Z,15.68
2022-12-11T20:16:14.927Z,14.47
2022-12-11T20:18:41.617Z,14.62
2022-12-11T20:21:11.297Z,14.39
2022-12-11T20:23:38.006Z,16.29
2022-12-11T20:26:08.537Z,18.38
2022-12-11T20:28:35.237Z,18.34
2022-12-11T20:31:13.571Z,18.02
2022-12-11T20:33:43.349Z,20.82
2022-12-11T20:36:14.285Z,21.66
2022-12-11T20:38:40.970Z,21.60
2022-12-11T20:41:12.747Z,20.11
2022-12-11T20:43:39.620Z,20.15
2022-12-11T20:46:07.276Z,19.43
2022-12-11T20:48:34.028Z,15.69
2022-12-11T20:51:01.473Z,14.51
2022-12-11T20:53:28.161Z,13.74
2022-12-11T20:55:54.882Z,12.87
2022-12-11T20:58:21.528Z,11.92
2022-12-11T21:00:48.357Z,11.82
2022-12-11T21:03:15.013Z,12.29
2022-12-11T21:05:41.776Z,11.83
2022-12-11T21:08:08.914Z,12.66
2022-12-11T21:10:35.614Z,12.79
2022-12-11T21:13:02.458Z,12.43
2022-12-11T21:15:29.103Z,12.14
2022-12-11T21:17:55.787Z,12.12
2022-12-11T21:20:22.430Z,11.93
2022-12-11T21:22:49.063Z,12.02
2022-12-11T21:25:15.806Z,11.66
2022-12-11T21:27:42.471Z,11.49
2022-12-11T21:30:09.385Z,11.75
2022-12-11T21:32:36.014Z,11.62
2022-12-11T21:35:02.739Z,11.94
2022-12-11T21:37:29.413Z,11.64
2022-12-11T21:39:56.546Z,11.39
2022-12-11T21:42:23.897Z,10.93
2022-12-11T21:45:37.562Z,11.25
2022-12-11T21:47:37.244Z,11.28
2022-12-11T21:50:04.451Z,11.34
2022-12-11T21:52:31.184Z,11.06
2022-12-11T21:54:57.811Z,10.95
2022-12-11T21:57:26.600Z,10.90
2022-12-11T21:59:53.515Z,10.74
2022-12-11T22:02:20.219Z,10.18
2022-12-11T22:04:46.879Z,10.77
2022-12-11T22:07:13.626Z,10.46
2022-12-11T22:09:40.273Z,9.95
2022-12-11T22:12:07.005Z,9.63
2022-12-11T22:14:33.621Z,9.09
2022-12-11T22:17:00.297Z,8.83
2022-12-11T22:19:32.328Z,9.46
2022-12-11T22:21:59.417Z,9.45
2022-12-11T22:24:26.075Z,9.10
2022-12-11T22:26:52.735Z,8.86
2022-12-11T22:29:19.371Z,8.85
2022-12-11T22:31:46.040Z,8.71
2022-12-11T22:34:12.670Z,9.04
2022-12-11T22:36:39.314Z,8.97
2022-12-11T22:39:05.999Z,9.21
2022-12-11T22:41:32.921Z,8.96
2022-12-11T22:43:59.572Z,8.77
2022-12-11T22:46:28.245Z,8.86
2022-12-11T22:48:54.935Z,8.97
2022-12-11T22:51:21.634Z,8.66
2022-12-11T22:53:48.273Z,8.83
2022-12-11T22:56:14.923Z,9.33
2022-12-11T22:58:41.561Z,10.06
2022-12-11T23:01:12.958Z,9.30
2022-12-11T23:03:39.689Z,8.26
2022-12-11T23:06:09.049Z,8.20
2022-12-11T23:08:36.801Z,8.15
2022-12-11T23:11:10.367Z,8.24
2022-12-11T23:13:37.003Z,8.49
2022-12-11T23:16:03.642Z,8.31
2022-12-11T23:18:30.294Z,8.38
2022-12-11T23:20:56.947Z,8.30
2022-12-11T23:23:23.610Z,8.73
2022-12-11T23:25:50.323Z,8.97
2022-12-11T23:28:16.945Z,8.80
2022-12-11T23:30:43.628Z,8.87
2022-12-11T23:33:10.276Z,8.33
2022-12-11T23:35:36.921Z,8.14
2022-12-11T23:38:03.597Z,7.91
2022-12-11T23:40:30.225Z,7.92
2022-12-11T23:42:56.846Z,8.53
2022-12-11T23:45:23.546Z,8.52
2022-12-11T23:47:50.158Z,7.95
2022-12-11T23:50:16.785Z,7.72
2022-12-11T23:52:43.428Z,7.74
2022-12-11T23:55:10.759Z,7.79
2022-12-11T23:57:37.624Z,7.49
